createdAt,value
2023-02-16T00:01:52.748Z,102201.47
2023-02-16T00:04:22.943Z,102196.22
2023-02-16T00:06:51.690Z,102189.97
2023-02-16T00:09:20.528Z,102193.59
2023-02-16T00:12:06.700Z,102197.09
2023-02-16T00:14:38.294Z,102194.47
2023-02-16T00:17:06.860Z,102193.63
2023-02-16T00:19:37.150Z,102182.97
2023-02-16T00:22:06.347Z,102192.66
2023-02-16T00:24:34.508Z,102192.59
2023-02-16T00:27:03.178Z,102191.66
2023-02-16T00:29:33.690Z,102188.19
2023-02-16T00:32:06.429Z,102191.63
2023-02-16T00:34:36.157Z,102189.06
2023-02-16T00:37:06.202Z,102171.50
2023-02-16T00:39:35.262Z,102179.28
2023-02-16T00:42:05.994Z,102179.28
2023-02-16T00:44:36.891Z,102170.47
2023-02-16T00:47:18.879Z,102176.53
2023-02-16T00:49:47.626Z,102169.47
2023-02-16T00:52:28.755Z,102164.94
2023-02-16T00:54:56.762Z,102173.00
2023-02-16T00:57:25.607Z,102170.31
2023-02-16T01:00:01.861Z,102173.72
2023-02-16T01:02:31.168Z,102171.09
2023-02-16T01:04:59.039Z,102160.50
2023-02-16T01:07:44.434Z,102167.56
2023-02-16T01:10:29.891Z,102167.56
2023-02-16T01:12:58.191Z,102169.28
2023-02-16T01:15:27.495Z,102165.75
2023-02-16T01:17:56.830Z,102163.94
2023-02-16T01:20:27.625Z,102155.09
2023-02-16T01:22:55.757Z,102148.97
2023-02-16T01:25:23.792Z,102158.69
2023-02-16T01:27:52.043Z,102146.50
2023-02-16T01:30:22.556Z,102148.22
2023-02-16T01:32:52.436Z,102139.47
2023-02-16T01:35:23.204Z,102136.78
2023-02-16T01:37:51.486Z,102137.53
2023-02-16T01:40:42.028Z,102133.19
2023-02-16T01:43:19.976Z,102134.19
2023-02-16T01:45:53.094Z,102141.28
2023-02-16T01:48:25.704Z,102137.69
2023-02-16T01:51:00.376Z,102135.00
2023-02-16T01:53:33.066Z,102127.91
2023-02-16T01:56:04.810Z,102131.25
2023-02-16T01:58:39.424Z,102130.22
2023-02-16T02:01:43.169Z,102124.84
2023-02-16T02:04:40.307Z,102136.31
2023-02-16T02:07:12.621Z,102134.47
2023-02-16T02:09:45.975Z,102127.50
2023-02-16T02:12:24.011Z,102127.56
2023-02-16T02:14:52.130Z,102134.56
2023-02-16T02:17:22.544Z,102138.94
2023-02-16T02:20:02.374Z,102132.66
2023-02-16T02:23:24.088Z,102131.69
2023-02-16T02:29:57.582Z,102120.84
2023-02-16T02:32:36.133Z,102122.59
2023-02-16T02:35:50.700Z,102131.38
2023-02-16T02:38:25.731Z,102123.38
2023-02-16T02:41:01.485Z,102123.53
2023-02-16T02:43:35.228Z,102127.16
2023-02-16T02:46:08.901Z,102120.78
2023-02-16T02:48:36.901Z,102120.75
2023-02-16T02:51:28.812Z,102125.03
2023-02-16T02:54:14.912Z,102120.53
2023-02-16T02:57:05.635Z,102110.66
2023-02-16T02:59:56.739Z,102106.16
2023-02-16T03:02:27.574Z,102102.69
2023-02-16T03:04:58.675Z,102104.44
2023-02-16T03:07:46.735Z,102099.81
2023-02-16T03:10:34.050Z,102097.13
2023-02-16T03:13:03.279Z,102088.25
2023-02-16T03:15:33.171Z,102089.03
2023-02-16T03:18:23.570Z,102103.00
2023-02-16T03:21:09.454Z,102095.94
2023-02-16T03:23:57.679Z,102105.75
2023-02-16T03:26:45.934Z,102092.38
2023-02-16T03:29:19.352Z,102094.09
2023-02-16T03:31:48.325Z,102092.28
2023-02-16T03:34:19.264Z,102088.75
2023-02-16T03:36:50.302Z,102095.59
2023-02-16T03:39:19.369Z,102095.59
2023-02-16T03:41:51.169Z,102084.97
2023-02-16T03:44:19.789Z,102093.72
2023-02-16T03:46:49.533Z,102085.66
2023-02-16T03:49:19.516Z,102086.63
2023-02-16T03:51:47.637Z,102078.47
2023-02-16T03:54:15.520Z,102075.75
2023-02-16T03:56:43.592Z,102076.66
2023-02-16T03:59:11.436Z,102076.56
2023-02-16T04:01:39.270Z,102073.00
2023-02-16T04:04:07.478Z,102070.44
2023-02-16T04:06:36.689Z,102059.00
2023-02-16T04:09:04.723Z,102055.56
2023-02-16T04:11:50.370Z,102057.31
2023-02-16T04:14:18.404Z,102051.28
2023-02-16T04:16:46.297Z,102054.81
2023-02-16T04:19:14.436Z,102054.16
2023-02-16T04:21:44.083Z,102058.47
2023-02-16T04:24:12.070Z,102056.50
2023-02-16T04:26:40.214Z,102053.78
2023-02-16T04:29:08.016Z,102060.84
2023-02-16T04:31:35.910Z,102060.09
2023-02-16T04:34:03.826Z,102065.31
2023-02-16T04:36:31.727Z,102065.22
2023-02-16T04:39:01.137Z,102067.03
2023-02-16T04:41:29.057Z,102062.66
2023-02-16T04:43:56.864Z,102064.34
2023-02-16T04:46:25.099Z,102054.56
2023-02-16T04:48:53.111Z,102052.78
2023-02-16T04:51:20.984Z,102055.38
2023-02-16T04:53:49.084Z,102051.13
2023-02-16T04:56:18.606Z,102054.72
2023-02-16T04:58:46.620Z,102053.03
2023-02-16T05:01:20.828Z,102052.13
2023-02-16T05:03:49.186Z,102048.63
2023-02-16T05:06:17.171Z,102046.06
2023-02-16T05:08:45.494Z,102040.75
2023-02-16T05:11:32.140Z,102046.97
2023-02-16T05:14:19.668Z,102054.81
2023-02-16T05:16:47.840Z,102052.16
2023-02-16T05:19:15.753Z,102048.72
2023-02-16T05:21:43.730Z,102051.19
2023-02-16T05:24:13.185Z,102041.47
2023-02-16T05:26:41.458Z,102045.00
2023-02-16T05:29:10.813Z,102034.53
2023-02-16T05:31:39.370Z,102040.63
2023-02-16T05:34:07.248Z,102048.53
2023-02-16T05:36:35.190Z,102062.56
2023-02-16T05:42:45.934Z,102059.28
2023-02-16T05:45:22.497Z,102056.44
2023-02-16T05:55:16.338Z,102051.31
2023-02-16T05:58:08.550Z,102073.13
2023-02-16T06:01:16.887Z,102065.03
2023-02-16T06:04:33.825Z,102055.41
2023-02-16T06:07:14.939Z,102029.19
2023-02-16T06:10:04.347Z,102048.38
2023-02-16T06:13:24.718Z,102039.59
2023-02-16T06:16:16.876Z,102053.50
2023-02-16T06:19:00.036Z,102048.09
2023-02-16T06:21:44.901Z,102057.78
2023-02-16T06:30:41.120Z,102053.31
2023-02-16T06:34:18.296Z,102049.81
2023-02-16T06:37:07.440Z,102050.66
2023-02-16T06:40:22.952Z,102058.59
2023-02-16T06:42:51.231Z,102061.16
2023-02-16T06:45:19.701Z,102076.78
2023-02-16T06:47:47.524Z,102069.56
2023-02-16T06:50:15.640Z,102072.94
2023-02-16T06:52:45.057Z,102067.59
2023-02-16T06:55:12.974Z,102059.06
2023-02-16T06:57:41.092Z,102048.66
2023-02-16T07:00:10.820Z,102056.34
2023-02-16T07:02:38.623Z,102052.91
2023-02-16T07:05:06.964Z,102058.81
2023-02-16T07:07:34.864Z,102053.50
2023-02-16T07:10:04.077Z,102040.13
2023-02-16T07:12:31.964Z,102048.13
2023-02-16T07:14:59.833Z,102043.47
2023-02-16T07:17:27.772Z,102051.31
2023-02-16T07:19:56.052Z,102039.66
2023-02-16T07:22:24.778Z,102028.00
2023-02-16T07:24:52.626Z,102036.41
2023-02-16T07:27:22.017Z,102036.41
2023-02-16T07:29:49.916Z,102044.13
2023-02-16T07:32:17.826Z,102052.91
2023-02-16T07:34:46.249Z,102051.81
2023-02-16T07:37:14.128Z,102060.56
2023-02-16T07:39:42.017Z,102055.25
2023-02-16T07:42:09.899Z,102051.03
2023-02-16T07:44:39.202Z,102059.47
2023-02-16T07:47:07.107Z,102056.53
2023-02-16T07:49:35.231Z,102046.75
2023-02-16T07:52:03.240Z,102045.59
2023-02-16T07:54:32.557Z,102039.97
2023-02-16T07:57:00.553Z,102038.38
2023-02-16T07:59:28.792Z,102045.59
2023-02-16T08:01:58.348Z,102054.78
2023-02-16T08:04:27.259Z,102059.03
2023-02-16T08:06:55.506Z,102062.56
2023-02-16T08:09:23.468Z,102062.88
2023-02-16T08:11:51.624Z,102064.78
2023-02-16T08:14:19.531Z,102053.91
2023-02-16T08:16:51.740Z,102060.75
2023-02-16T08:19:23.249Z,102057.28
2023-02-16T08:21:51.419Z,102046.56
2023-02-16T08:24:19.310Z,102039.59
2023-02-16T08:26:49.843Z,102049.97
2023-02-16T08:29:18.746Z,102037.59
2023-02-16T08:31:55.536Z,102039.47
2023-02-16T08:34:26.541Z,102052.63
2023-02-16T08:36:58.060Z,102045.31
2023-02-16T08:39:28.841Z,102049.47
2023-02-16T08:41:58.441Z,102048.84
2023-02-16T08:44:28.213Z,102050.41
2023-02-16T08:47:00.794Z,102047.06
2023-02-16T08:49:30.294Z,102042.72
2023-02-16T08:52:01.781Z,102034.50
2023-02-16T08:54:33.790Z,102046.56
2023-02-16T08:57:03.283Z,102033.75
2023-02-16T08:59:31.817Z,102031.56
2023-02-16T09:02:01.109Z,102032.88
2023-02-16T09:04:30.929Z,102027.38
2023-02-16T09:06:59.659Z,102029.00
2023-02-16T09:13:18.004Z,102056.00
2023-02-16T09:15:47.598Z,102047.47
2023-02-16T09:18:18.032Z,102052.50
2023-02-16T09:20:47.769Z,102042.22
2023-02-16T09:23:15.738Z,102042.56
2023-02-16T09:25:43.955Z,102048.78
2023-02-16T09:28:12.238Z,102050.06
2023-02-16T09:30:40.997Z,102056.16
2023-02-16T09:33:09.150Z,102066.19
2023-02-16T09:35:40.534Z,102060.31
2023-02-16T09:38:10.933Z,102058.38
2023-02-16T09:40:39.301Z,102067.19
2023-02-16T09:43:18.504Z,102062.75
2023-02-16T09:45:50.905Z,102076.47
2023-02-16T09:48:25.812Z,102069.53
2023-02-16T09:50:55.687Z,102073.88
2023-02-16T09:53:34.665Z,102080.06
2023-02-16T09:56:15.154Z,102071.78
2023-02-16T09:58:46.869Z,102071.97
2023-02-16T10:01:22.086Z,102077.50
2023-02-16T10:04:01.818Z,102076.16
2023-02-16T10:06:40.401Z,102076.75
2023-02-16T10:09:13.524Z,102080.41
2023-02-16T10:11:49.743Z,102073.22
2023-02-16T10:14:26.376Z,102075.28
2023-02-16T10:17:01.614Z,102077.94
2023-02-16T10:19:36.558Z,102085.28
2023-02-16T10:22:08.694Z,102080.22
2023-02-16T10:24:46.246Z,102071.91
2023-02-16T10:27:17.167Z,102074.91
2023-02-16T10:29:45.347Z,102084.16
2023-02-16T10:32:20.906Z,102081.44
2023-02-16T10:34:53.245Z,102085.78
2023-02-16T10:37:33.577Z,102071.31
2023-02-16T10:40:18.774Z,102073.34
2023-02-16T10:42:53.487Z,102085.66
2023-02-16T10:45:27.408Z,102069.63
2023-02-16T10:47:55.866Z,102078.19
2023-02-16T10:50:27.717Z,102076.22
2023-02-16T10:52:59.140Z,102073.47
2023-02-16T10:55:28.726Z,102078.66
2023-02-16T10:57:59.401Z,102073.72
2023-02-16T11:00:40.297Z,102072.78
2023-02-16T11:03:13.313Z,102081.00
2023-02-16T11:05:42.482Z,102076.97
2023-02-16T11:08:12.952Z,102071.38
2023-02-16T11:10:49.130Z,102081.50
2023-02-16T11:13:32.973Z,102064.34
2023-02-16T11:16:07.082Z,102069.13
2023-02-16T11:18:38.008Z,102065.69
2023-02-16T11:21:08.452Z,102064.53
2023-02-16T11:23:40.326Z,102066.09
2023-02-16T11:26:24.699Z,102068.38
2023-02-16T11:28:53.138Z,102063.78
2023-02-16T11:31:33.105Z,102064.13
2023-02-16T11:34:17.366Z,102058.16
2023-02-16T11:36:48.356Z,102055.31
2023-02-16T11:39:22.930Z,102051.03
2023-02-16T11:41:56.134Z,102060.00
2023-02-16T11:44:29.334Z,102064.81
2023-02-16T11:46:59.190Z,102063.16
2023-02-16T11:49:33.349Z,102062.97
2023-02-16T11:52:02.438Z,102056.00
2023-02-16T11:54:30.517Z,102054.78
2023-02-16T11:57:09.782Z,102061.63
2023-02-16T11:59:39.268Z,102051.03
2023-02-16T12:02:36.901Z,102052.13
2023-02-16T12:05:20.621Z,102054.34
2023-02-16T12:08:06.894Z,102039.84
2023-02-16T12:10:42.327Z,102040.31
2023-02-16T12:13:19.594Z,102048.00
2023-02-16T12:15:54.781Z,102032.88
2023-02-16T12:18:32.604Z,102032.16
2023-02-16T12:21:07.814Z,102028.91
2023-02-16T12:23:41.326Z,102033.91
2023-02-16T12:26:34.294Z,102035.94
2023-02-16T12:29:16.582Z,102041.38
2023-02-16T12:31:59.695Z,102029.28
2023-02-16T12:34:36.656Z,102031.94
2023-02-16T12:37:14.735Z,102031.50
2023-02-16T12:39:53.749Z,102030.25
2023-02-16T12:42:37.378Z,102022.31
2023-02-16T12:45:14.220Z,102027.50
2023-02-16T12:47:48.967Z,102024.91
2023-02-16T12:50:21.407Z,102023.00
2023-02-16T12:52:55.755Z,102019.50
2023-02-16T12:55:29.152Z,102017.06
2023-02-16T12:58:09.493Z,102008.94
2023-02-16T13:00:45.405Z,102011.44
2023-02-16T13:03:36.059Z,101999.66
2023-02-16T13:06:20.226Z,102004.34
2023-02-16T13:08:56.151Z,101992.94
2023-02-16T13:11:29.521Z,101997.31
2023-02-16T13:14:03.652Z,101987.94
2023-02-16T13:16:42.230Z,101992.84
2023-02-16T13:19:13.182Z,101993.72
2023-02-16T13:22:05.844Z,101988.06
2023-02-16T13:24:49.241Z,101983.06
2023-02-16T13:27:31.366Z,101977.78
2023-02-16T13:30:27.690Z,101975.50
2023-02-16T13:33:15.497Z,101966.19
2023-02-16T13:35:58.894Z,101967.06
2023-02-16T13:39:01.966Z,101960.66
2023-02-16T13:42:04.101Z,101958.19
2023-02-16T13:44:40.582Z,101957.59
2023-02-16T13:47:14.933Z,101964.81
2023-02-16T13:49:44.630Z,101966.81
2023-02-16T13:52:28.672Z,101965.72
2023-02-16T13:54:56.787Z,101962.75
2023-02-16T13:58:04.473Z,101965.47
2023-02-16T14:00:36.748Z,101961.25
2023-02-16T14:03:12.156Z,101961.97
2023-02-16T14:05:43.900Z,101957.19
2023-02-16T14:08:23.672Z,101953.59
2023-02-16T14:11:12.492Z,101953.13
2023-02-16T14:13:50.816Z,101948.25
2023-02-16T14:16:35.733Z,101956.41
2023-02-16T14:19:20.161Z,101947.78
2023-02-16T14:21:50.983Z,101943.56
2023-02-16T14:24:32.724Z,101944.28
2023-02-16T14:27:06.191Z,101936.53
2023-02-16T14:29:38.599Z,101939.06
2023-02-16T14:32:21.367Z,101931.19
2023-02-16T14:34:56.035Z,101938.53
2023-02-16T14:37:36.820Z,101940.88
2023-02-16T14:40:14.296Z,101939.59
2023-02-16T14:42:50.092Z,101940.50
2023-02-16T14:46:03.503Z,101921.59
2023-02-16T14:48:55.533Z,101924.19
2023-02-16T14:51:43.954Z,101923.06
2023-02-16T14:54:41.648Z,101930.13
2023-02-16T14:57:13.672Z,101922.88
2023-02-16T14:59:49.488Z,101925.72
2023-02-16T15:02:29.640Z,101922.94
2023-02-16T15:04:58.303Z,101915.13
2023-02-16T15:07:29.472Z,101921.72
2023-02-16T15:09:59.856Z,101917.88
2023-02-16T15:12:33.438Z,101922.88
2023-02-16T15:15:10.311Z,101924.66
2023-02-16T15:17:40.851Z,101929.47
2023-02-16T15:20:12.199Z,101927.72
2023-02-16T15:22:44.632Z,101932.16
2023-02-16T15:25:24.432Z,101931.00
2023-02-16T15:27:59.074Z,101925.72
2023-02-16T15:30:29.946Z,101932.25
2023-02-16T15:33:01.888Z,101941.50
2023-02-16T15:35:34.927Z,101933.63
2023-02-16T15:38:10.530Z,101934.72
2023-02-16T15:40:41.626Z,101934.09
2023-02-16T15:43:19.987Z,101935.72
2023-02-16T15:45:52.686Z,101939.66
2023-02-16T15:48:27.851Z,101945.13
2023-02-16T15:50:58.601Z,101942.09
2023-02-16T15:53:35.980Z,101938.78
2023-02-16T15:56:18.924Z,101940.53
2023-02-16T15:58:47.816Z,101937.88
2023-02-16T16:01:31.213Z,101929.06
2023-02-16T16:04:05.809Z,101932.47
2023-02-16T16:06:39.589Z,101933.59
2023-02-16T16:09:08.544Z,101938.84
2023-02-16T16:11:38.603Z,101936.56
2023-02-16T16:19:06.839Z,101936.16
2023-02-16T16:22:22.125Z,101932.66
2023-02-16T16:29:24.428Z,101928.44
2023-02-16T16:35:45.765Z,101932.34
2023-02-16T16:46:43.568Z,101904.97
2023-02-16T16:56:37.986Z,101906.88
2023-02-16T16:59:06.312Z,101911.16
2023-02-16T17:01:35.853Z,101906.47
2023-02-16T17:04:03.956Z,101904.66
2023-02-16T17:06:34.166Z,101908.25
2023-02-16T17:09:06.623Z,101907.22
2023-02-16T17:11:37.045Z,101895.31
2023-02-16T17:14:09.823Z,101890.94
2023-02-16T17:16:42.241Z,101900.88
2023-02-16T17:19:13.346Z,101904.31
2023-02-16T17:21:41.541Z,101905.38
2023-02-16T17:24:10.285Z,101904.31
2023-02-16T17:26:39.021Z,101903.44
2023-02-16T17:29:08.491Z,101910.38
2023-02-16T17:31:38.763Z,101913.47
2023-02-16T17:34:07.302Z,101906.59
2023-02-16T17:36:36.196Z,101901.06
2023-02-16T17:39:04.174Z,101891.66
2023-02-16T17:41:32.250Z,101896.91
2023-02-16T17:44:01.121Z,101887.13
2023-02-16T17:46:29.311Z,101882.94
2023-02-16T17:48:58.960Z,101888.50
2023-02-16T17:51:27.402Z,101887.28
2023-02-16T17:53:56.094Z,101896.66
2023-02-16T17:56:26.038Z,101899.28
2023-02-16T17:58:54.394Z,101905.16
2023-02-16T18:01:22.987Z,101906.03
2023-02-16T18:03:52.659Z,101899.56
2023-02-16T18:06:26.398Z,101896.97
2023-02-16T18:08:56.364Z,101897.09
2023-02-16T18:11:26.086Z,101894.44
2023-02-16T18:13:54.374Z,101892.72
2023-02-16T18:16:27.359Z,101903.28
2023-02-16T18:18:57.331Z,101910.34
2023-02-16T18:21:27.100Z,101908.38
2023-02-16T18:23:55.053Z,101910.78
2023-02-16T18:26:23.777Z,101907.69
2023-02-16T18:28:52.442Z,101909.75
2023-02-16T18:31:20.961Z,101913.22
2023-02-16T18:33:49.290Z,101913.09
2023-02-16T18:36:17.285Z,101904.41
2023-02-16T18:38:46.566Z,101901.09
2023-02-16T18:41:14.908Z,101900.94
2023-02-16T18:43:45.683Z,101906.91
2023-02-16T18:46:14.215Z,101907.69
2023-02-16T18:48:43.977Z,101903.38
2023-02-16T18:51:16.586Z,101909.69
2023-02-16T18:53:56.428Z,101905.09
2023-02-16T18:56:24.438Z,101903.72
2023-02-16T18:58:53.291Z,101897.34
2023-02-16T19:01:28.273Z,101893.63
2023-02-16T19:03:56.227Z,101888.44
2023-02-16T19:06:24.558Z,101887.50
2023-02-16T19:08:54.011Z,101885.81
2023-02-16T19:11:25.428Z,101889.78
2023-02-16T19:13:53.700Z,101889.88
2023-02-16T19:16:21.956Z,101875.03
2023-02-16T19:18:52.200Z,101889.97
2023-02-16T19:21:20.298Z,101869.69
2023-02-16T19:23:48.151Z,101871.59
2023-02-16T19:26:19.253Z,101876.91
2023-02-16T19:28:47.973Z,101873.47
2023-02-16T19:31:22.296Z,101874.25
2023-02-16T19:33:53.527Z,101869.53
2023-02-16T19:36:22.304Z,101871.50
2023-02-16T19:38:50.348Z,101869.41
2023-02-16T19:41:22.991Z,101868.63
2023-02-16T19:43:52.793Z,101863.34
2023-02-16T19:46:21.099Z,101872.38
2023-02-16T19:48:49.475Z,101858.19
2023-02-16T19:51:17.385Z,101857.44
2023-02-16T19:53:47.071Z,101854.50
2023-02-16T19:56:17.567Z,101842.25
2023-02-16T19:58:49.525Z,101834.94
2023-02-16T20:01:20.021Z,101834.00
2023-02-16T20:03:48.287Z,101831.41
2023-02-16T20:06:19.905Z,101820.63
2023-02-16T20:08:49.208Z,101825.94
2023-02-16T20:11:18.805Z,101823.94
2023-02-16T20:13:48.679Z,101823.88
2023-02-16T20:16:17.720Z,101821.28
2023-02-16T20:18:45.805Z,101817.75
2023-02-16T20:21:16.256Z,101822.75
2023-02-16T20:23:44.449Z,101824.44
2023-02-16T20:26:15.618Z,101807.41
2023-02-16T20:28:50.965Z,101795.00
2023-02-16T20:31:25.309Z,101797.50
2023-02-16T20:33:54.571Z,101794.78
2023-02-16T20:36:23.387Z,101796.94
2023-02-16T20:38:51.737Z,101795.19
2023-02-16T20:41:21.299Z,101784.91
2023-02-16T20:43:51.626Z,101773.94
2023-02-16T20:46:20.211Z,101774.88
2023-02-16T20:48:50.045Z,101782.59
2023-02-16T20:51:19.450Z,101759.47
2023-02-16T20:53:47.945Z,101759.88
2023-02-16T20:56:21.656Z,101756.84
2023-02-16T20:58:52.877Z,101744.59
2023-02-16T21:01:24.036Z,101743.53
2023-02-16T21:03:54.647Z,101740.06
2023-02-16T21:06:22.743Z,101739.19
2023-02-16T21:08:50.728Z,101725.59
2023-02-16T21:11:18.834Z,101724.00
2023-02-16T21:13:47.759Z,101715.06
2023-02-16T21:16:17.340Z,101724.28
2023-02-16T21:18:45.532Z,101721.34
2023-02-16T21:21:15.726Z,101723.69
2023-02-16T21:23:44.442Z,101724.41
2023-02-16T21:26:13.417Z,101722.56
2023-02-16T21:28:41.540Z,101719.59
2023-02-16T21:31:12.148Z,101721.34
2023-02-16T21:33:43.757Z,101722.41
2023-02-16T21:36:14.298Z,101716.22
2023-02-16T21:38:44.939Z,101704.50
2023-02-16T21:41:29.111Z,101696.56
2023-02-16T21:44:00.842Z,101701.09
2023-02-16T21:46:32.668Z,101703.69
2023-02-16T21:49:04.000Z,101685.78
2023-02-16T21:51:34.362Z,101683.03
2023-02-16T21:54:02.443Z,101675.75
2023-02-16T21:56:48.240Z,101674.31
2023-02-16T21:59:17.810Z,101675.25
2023-02-16T22:01:51.399Z,101674.28
2023-02-16T22:04:22.984Z,101668.94
2023-02-16T22:06:52.236Z,101668.81
2023-02-16T22:09:21.840Z,101662.47
2023-02-16T22:11:50.364Z,101660.97
2023-02-16T22:14:18.469Z,101651.47
2023-02-16T22:16:48.765Z,101652.69
2023-02-16T22:19:18.836Z,101651.56
2023-02-16T22:21:49.523Z,101661.34
2023-02-16T22:24:18.797Z,101657.75
2023-02-16T22:26:48.494Z,101655.34
2023-02-16T22:29:16.480Z,101654.72
2023-02-16T22:31:45.689Z,101648.41
2023-02-16T22:34:16.312Z,101636.94
2023-02-16T22:36:46.026Z,101631.31
2023-02-16T22:39:16.405Z,101631.13
2023-02-16T22:41:44.427Z,101636.03
2023-02-16T22:44:13.348Z,101632.09
2023-02-16T22:46:41.166Z,101624.38
2023-02-16T22:49:11.147Z,101614.91
2023-02-16T22:51:39.658Z,101605.13
2023-02-16T22:54:07.936Z,101606.25
2023-02-16T22:56:37.122Z,101604.97
2023-02-16T22:59:05.624Z,101601.47
2023-02-16T23:01:33.811Z,101603.69
2023-02-16T23:04:02.515Z,101607.34
2023-02-16T23:06:32.774Z,101614.19
2023-02-16T23:09:03.360Z,101600.41
2023-02-16T23:11:31.683Z,101599.44
2023-02-16T23:14:01.429Z,101596.75
2023-02-16T23:16:29.412Z,101592.97
2023-02-16T23:18:58.168Z,101589.41
2023-02-16T23:21:28.034Z,101588.84
2023-02-16T23:23:56.683Z,101576.72
2023-02-16T23:26:26.515Z,101573.03
2023-02-16T23:28:56.389Z,101572.00
2023-02-16T23:31:25.752Z,101571.00
2023-02-16T23:33:54.076Z,101563.94
2023-02-16T23:36:21.977Z,101564.00
2023-02-16T23:38:49.933Z,101558.56
2023-02-16T23:41:17.783Z,101563.72
2023-02-16T23:43:45.727Z,101564.38
2023-02-16T23:46:13.720Z,101554.16
2023-02-16T23:48:42.950Z,101552.88
2023-02-16T23:51:12.134Z,101550.19
2023-02-16T23:53:40.114Z,101542.16
2023-02-16T23:56:09.862Z,101542.22
2023-02-16T23:58:41.294Z,101538.28
